Time;durP1;ratioP1;P1;durP2;ratioP2;P2;SDS_P1;SDS_P2;PMS_P1;PMS_P2;Temp;Humidity;BMP_temperature;BMP_pressure;BME280_temperature;BME280_humidity;BME280_pressure;Samples;Min_cycle;Max_cycle;Signal;HPM_P1;HPM_P2
2022/07/03 00:01:17;;;;;;;4.10;3.22;;;17.00;95.90;;;;;;5142714;27;20109;-62
2022/07/03 00:03:43;;;;;;;6.53;3.22;;;16.90;96.10;;;;;;5146928;27;20164;-61
2022/07/03 00:06:09;;;;;;;3.38;3.00;;;16.90;96.20;;;;;;5150510;27;20034;-62
2022/07/03 00:08:35;;;;;;;3.60;3.05;;;16.80;96.30;;;;;;5142987;27;20390;-61
2022/07/03 00:11:00;;;;;;;3.40;2.80;;;16.70;96.50;;;;;;5147993;27;20034;-62
2022/07/03 00:13:26;;;;;;;4.93;3.60;;;16.70;96.70;;;;;;5131352;27;20196;-62
2022/07/03 00:15:51;;;;;;;3.60;3.30;;;16.70;97.00;;;;;;5147885;27;20121;-62
2022/07/03 00:18:17;;;;;;;5.85;3.53;;;16.60;97.10;;;;;;5147583;27;20494;-61
2022/07/03 00:20:48;;;;;;;4.05;3.38;;;16.60;97.30;;;;;;5149556;27;20474;-61
2022/07/03 00:23:17;;;;;;;5.60;3.17;;;16.60;97.70;;;;;;5148362;27;20041;-61
2022/07/03 00:25:44;;;;;;;5.05;3.40;;;16.60;97.70;;;;;;5147801;27;20042;-61
2022/07/03 00:28:10;;;;;;;3.30;2.95;;;16.60;97.80;;;;;;5150580;27;20118;-62
2022/07/03 00:30:36;;;;;;;3.85;2.97;;;16.60;97.70;;;;;;5114340;27;20398;-61
2022/07/03 00:33:06;;;;;;;6.10;3.33;;;16.50;98.00;;;;;;5131433;27;20042;-62
2022/07/03 00:35:35;;;;;;;4.32;3.00;;;16.50;98.20;;;;;;5148082;27;20121;-61
2022/07/03 00:38:01;;;;;;;5.85;2.97;;;16.50;98.60;;;;;;5132559;27;20117;-62
2022/07/03 00:40:27;;;;;;;5.10;2.88;;;16.50;98.50;;;;;;5145766;27;20031;-62
2022/07/03 00:42:53;;;;;;;4.95;3.03;;;16.50;98.40;;;;;;5148007;27;22871;-61
2022/07/03 00:45:20;;;;;;;3.72;2.90;;;16.40;98.10;;;;;;5130128;27;20110;-62
2022/07/03 00:47:47;;;;;;;4.65;3.13;;;16.40;98.20;;;;;;5152523;27;20114;-62
2022/07/03 00:50:13;;;;;;;3.60;2.70;;;16.30;98.30;;;;;;5143408;27;20500;-61
2022/07/03 00:52:45;;;;;;;3.35;3.05;;;16.30;98.40;;;;;;5151249;27;20038;-61
2022/07/03 00:55:15;;;;;;;4.47;3.50;;;16.30;98.60;;;;;;5149000;27;20059;-61
2022/07/03 00:57:46;;;;;;;5.28;3.20;;;16.20;98.80;;;;;;5150569;27;20079;-61
2022/07/03 01:00:14;;;;;;;4.30;3.40;;;16.20;98.80;;;;;;5149730;27;20080;-62
2022/07/03 01:03:02;;;;;;;3.80;3.08;;;16.20;98.80;;;;;;5148686;27;20099;-61
2022/07/03 01:05:28;;;;;;;4.88;3.38;;;16.10;99.00;;;;;;5129992;27;20051;-61
2022/07/03 01:08:15;;;;;;;3.97;2.90;;;16.00;99.00;;;;;;5154105;27;20038;-62
2022/07/03 01:10:59;;;;;;;4.20;3.40;;;16.00;99.50;;;;;;5152694;27;20042;-61
2022/07/03 01:13:40;;;;;;;4.28;3.20;;;16.00;99.90;;;;;;5148097;27;20070;-61
2022/07/03 01:16:11;;;;;;;4.28;3.20;;;16.00;99.90;;;;;;5131726;27;20042;-62
2022/07/03 01:18:43;;;;;;;4.15;3.15;;;16.00;99.50;;;;;;5144083;27;20441;-61
2022/07/03 01:21:35;;;;;;;5.47;3.30;;;16.00;99.70;;;;;;5149200;27;20031;-61
2022/07/03 01:24:18;;;;;;;4.38;3.38;;;16.00;99.60;;;;;;5149718;27;20046;-61
2022/07/03 01:26:46;;;;;;;4.65;3.70;;;15.90;99.40;;;;;;5144164;27;20042;-61
2022/07/03 01:29:22;;;;;;;4.65;3.40;;;15.90;99.70;;;;;;5144683;27;20035;-62
2022/07/03 01:31:51;;;;;;;4.63;3.20;;;15.90;99.80;;;;;;5147592;27;20039;-62
2022/07/03 01:34:18;;;;;;;6.63;3.53;;;15.80;99.70;;;;;;5148554;27;20035;-61
2022/07/03 01:36:49;;;;;;;6.50;3.60;;;15.80;99.90;;;;;;5148933;27;20035;-61
2022/07/03 01:39:16;;;;;;;4.75;3.63;;;15.70;99.90;;;;;;5128355;27;20114;-61
2022/07/03 01:41:47;;;;;;;7.40;3.90;;;15.70;99.90;;;;;;5146258;27;20167;-61
2022/07/03 01:44:14;;;;;;;4.40;4.00;;;15.60;99.90;;;;;;5145037;27;20082;-61
2022/07/03 01:46:42;;;;;;;5.95;4.03;;;15.50;99.90;;;;;;5146738;27;20038;-62
2022/07/03 01:49:10;;;;;;;6.10;4.00;;;15.50;99.90;;;;;;5147640;27;20038;-61
2022/07/03 01:51:38;;;;;;;4.63;3.85;;;15.40;99.90;;;;;;5148699;27;20039;-61
2022/07/03 01:54:06;;;;;;;4.15;3.40;;;15.40;99.90;;;;;;5147180;27;20050;-60
2022/07/03 01:56:33;;;;;;;4.78;3.78;;;15.30;99.90;;;;;;5149190;27;20047;-62
2022/07/03 01:58:59;;;;;;;5.10;4.05;;;15.30;99.90;;;;;;5146519;27;20058;-61
2022/07/03 02:01:44;;;;;;;4.93;3.95;;;15.20;99.90;;;;;;5148774;27;20039;-61
2022/07/03 02:04:20;;;;;;;4.68;4.20;;;15.20;99.90;;;;;;5147482;27;20049;-60
2022/07/03 02:07:08;;;;;;;6.30;4.43;;;15.20;99.90;;;;;;5150837;27;20061;-61
2022/07/03 02:09:49;;;;;;;5.55;5.05;;;15.10;99.90;;;;;;5145393;27;20045;-61
2022/07/03 02:12:18;;;;;;;6.53;4.57;;;15.00;99.90;;;;;;5130725;27;20448;-62
2022/07/03 02:14:57;;;;;;;6.20;4.20;;;15.00;99.90;;;;;;5148568;27;20035;-61
2022/07/03 02:17:26;;;;;;;8.15;4.60;;;14.90;99.90;;;;;;5146446;27;20422;-62
2022/07/03 02:19:58;;;;;;;7.03;4.45;;;14.90;99.90;;;;;;5147456;27;20074;-61
2022/07/03 02:22:34;;;;;;;4.88;4.30;;;14.80;99.90;;;;;;5148634;27;20029;-61
2022/07/03 02:25:15;;;;;;;4.97;4.43;;;14.70;99.90;;;;;;5139229;27;20031;-61
2022/07/03 02:27:50;;;;;;;8.30;4.13;;;14.70;99.90;;;;;;5127935;27;20050;-61
2022/07/03 02:30:17;;;;;;;7.07;4.75;;;14.70;99.90;;;;;;5142486;27;20045;-61
2022/07/03 02:32:47;;;;;;;6.50;5.22;;;14.70;99.90;;;;;;5123162;27;20115;-60
2022/07/03 02:35:18;;;;;;;7.38;5.18;;;14.70;99.90;;;;;;5145907;27;20046;-61
2022/07/03 02:37:58;;;;;;;8.90;6.22;;;14.60;99.90;;;;;;5133830;27;20095;-61
2022/07/03 02:40:33;;;;;;;;;;;14.60;99.90;;;;;;5131342;27;20172;-60
2022/07/03 02:43:14;;;;;;;8.23;4.65;;;14.50;99.90;;;;;;5138492;27;19993;-61
2022/07/03 02:45:55;;;;;;;6.55;5.28;;;14.50;99.90;;;;;;5147179;27;20031;-61
2022/07/03 02:48:44;;;;;;;6.10;5.28;;;14.40;99.90;;;;;;5124764;27;20090;-61
2022/07/03 02:51:21;;;;;;;5.70;5.10;;;14.40;99.90;;;;;;5114177;27;20050;-61
2022/07/03 02:53:58;;;;;;;5.20;4.22;;;14.40;99.90;;;;;;5147492;27;20557;-61
2022/07/03 02:56:36;;;;;;;6.90;5.20;;;14.20;99.90;;;;;;5149092;27;20049;-60
2022/07/03 02:59:22;;;;;;;6.55;4.90;;;14.30;99.90;;;;;;5147980;27;20172;-61
2022/07/03 03:01:57;;;;;;;6.38;5.03;;;14.30;99.90;;;;;;5150261;27;20038;-60
2022/07/03 03:04:32;;;;;;;5.75;4.60;;;14.20;99.90;;;;;;5143342;27;20039;-60
2022/07/03 03:07:10;;;;;;;5.65;4.63;;;14.10;99.90;;;;;;5138912;27;20038;-61
2022/07/03 03:09:47;;;;;;;5.75;5.25;;;14.10;99.90;;;;;;5144872;27;20405;-60
2022/07/03 03:12:14;;;;;;;5.47;4.93;;;14.10;99.90;;;;;;5148282;27;20037;-60
2022/07/03 03:14:40;;;;;;;5.07;4.57;;;14.10;99.90;;;;;;5146174;27;20616;-60
2022/07/03 03:17:06;;;;;;;5.35;4.53;;;14.10;99.90;;;;;;5147240;27;20070;-60
2022/07/03 03:19:41;;;;;;;6.88;4.93;;;14.10;99.90;;;;;;5124824;27;20030;-61
2022/07/03 03:22:27;;;;;;;7.18;5.55;;;14.10;99.90;;;;;;5147915;27;20095;-61
2022/07/03 03:24:53;;;;;;;6.65;5.90;;;14.00;99.90;;;;;;5143837;27;20042;-60
2022/07/03 03:27:19;;;;;;;7.63;5.65;;;14.00;99.90;;;;;;5148347;27;20049;-60
2022/07/03 03:29:44;;;;;;;7.10;5.38;;;13.90;99.90;;;;;;5140492;27;20426;-60
2022/07/03 03:32:11;;;;;;;5.90;5.38;;;13.90;99.90;;;;;;5147313;27;20035;-61
2022/07/03 03:34:39;;;;;;;7.90;5.22;;;13.90;99.90;;;;;;5147799;27;20034;-60
2022/07/03 03:37:05;;;;;;;6.10;4.82;;;13.90;99.90;;;;;;5146019;27;20042;-60
2022/07/03 03:39:31;;;;;;;5.40;4.90;;;13.90;99.90;;;;;;5148983;27;20458;-60
2022/07/03 03:41:57;;;;;;;6.15;4.97;;;14.00;99.90;;;;;;5145781;27;20069;-60
2022/07/03 03:44:22;;;;;;;6.65;5.43;;;14.00;99.90;;;;;;5128325;27;20435;-61
2022/07/03 03:46:50;;;;;;;5.88;5.15;;;14.10;99.90;;;;;;5130331;27;20065;-60
2022/07/03 03:49:16;;;;;;;5.50;5.00;;;14.10;99.90;;;;;;5149033;27;20117;-61
2022/07/03 03:51:41;;;;;;;6.90;5.40;;;14.20;99.90;;;;;;5145132;27;20142;-61
2022/07/03 03:54:07;;;;;;;6.03;5.07;;;14.20;99.90;;;;;;5144284;27;20055;-60
2022/07/03 03:56:32;;;;;;;7.03;6.35;;;14.30;99.90;;;;;;5145713;27;20438;-61
2022/07/03 03:58:58;;;;;;;7.57;5.95;;;14.30;99.90;;;;;;5149035;27;20099;-61
2022/07/03 04:01:23;;;;;;;8.77;6.45;;;14.40;99.90;;;;;;5143357;27;20153;-60
2022/07/03 04:03:49;;;;;;;6.68;5.72;;;14.50;99.90;;;;;;5145987;27;20500;-61
2022/07/03 04:06:14;;;;;;;7.13;6.43;;;14.50;99.90;;;;;;5147696;27;20117;-61
2022/07/03 04:08:40;;;;;;;9.90;6.60;;;14.50;99.90;;;;;;5141948;27;20061;-60
2022/07/03 04:11:05;;;;;;;8.13;6.57;;;14.60;99.90;;;;;;5146094;27;20034;-61
2022/07/03 04:13:31;;;;;;;7.80;6.35;;;14.70;99.90;;;;;;5146822;27;20062;-60
2022/07/03 04:15:57;;;;;;;8.15;6.95;;;14.70;99.90;;;;;;5145178;27;20531;-60
2022/07/03 04:18:23;;;;;;;8.45;6.47;;;14.70;99.90;;;;;;5144798;27;20042;-60
2022/07/03 04:20:49;;;;;;;8.07;6.80;;;14.70;99.90;;;;;;5149007;27;20072;-60
2022/07/03 04:23:14;;;;;;;8.30;7.03;;;14.70;99.90;;;;;;5142219;27;20043;-61
2022/07/03 04:25:40;;;;;;;7.78;6.90;;;14.70;99.90;;;;;;5146196;27;20051;-60
2022/07/03 04:28:06;;;;;;;6.85;6.22;;;14.80;99.90;;;;;;5126732;27;20705;-61
2022/07/03 04:30:31;;;;;;;6.03;5.43;;;14.80;99.90;;;;;;5143725;27;20129;-61
2022/07/03 04:32:57;;;;;;;6.03;5.50;;;14.80;99.90;;;;;;5131622;27;20046;-61
2022/07/03 04:35:23;;;;;;;9.50;5.53;;;14.90;99.90;;;;;;5145111;27;20035;-61
2022/07/03 04:37:48;;;;;;;6.82;5.68;;;14.90;99.90;;;;;;5125965;27;20035;-60
2022/07/03 04:40:14;;;;;;;6.38;5.75;;;15.00;99.90;;;;;;5143387;27;20043;-60
2022/07/03 04:42:40;;;;;;;6.53;5.63;;;15.00;99.90;;;;;;5148760;27;20054;-60
2022/07/03 04:45:07;;;;;;;6.28;5.65;;;15.00;99.90;;;;;;5148496;27;20363;-61
2022/07/03 04:47:32;;;;;;;8.02;5.70;;;15.00;99.90;;;;;;5145675;27;20047;-61
2022/07/03 04:49:58;;;;;;;6.85;6.18;;;15.10;99.90;;;;;;5145896;27;20034;-61
2022/07/03 04:52:24;;;;;;;8.75;6.40;;;15.10;99.90;;;;;;5129857;27;20069;-61
2022/07/03 04:54:49;;;;;;;8.27;6.78;;;15.10;99.90;;;;;;5144095;27;20479;-60
2022/07/03 04:57:15;;;;;;;6.07;5.53;;;15.10;99.90;;;;;;5147792;27;20095;-60
2022/07/03 04:59:41;;;;;;;6.47;5.78;;;15.10;99.90;;;;;;5149159;27;20038;-60
2022/07/03 05:02:06;;;;;;;6.55;5.68;;;15.20;99.90;;;;;;5147618;27;20038;-61
2022/07/03 05:04:32;;;;;;;6.88;5.50;;;15.20;99.90;;;;;;5147393;27;20038;-60
2022/07/03 05:06:57;;;;;;;6.43;5.38;;;15.20;99.90;;;;;;5151434;27;20043;-60
2022/07/03 05:09:23;;;;;;;5.80;5.30;;;15.20;99.90;;;;;;5125985;27;20050;-60
2022/07/03 05:11:49;;;;;;;6.95;6.25;;;15.20;99.90;;;;;;5147624;27;20430;-60
2022/07/03 05:14:14;;;;;;;7.10;5.60;;;15.10;99.90;;;;;;5147616;27;20093;-61
2022/07/03 05:16:40;;;;;;;5.80;5.05;;;15.10;99.90;;;;;;5149701;27;20117;-61
2022/07/03 05:19:06;;;;;;;9.38;5.75;;;15.20;99.90;;;;;;5145432;27;20045;-61
2022/07/03 05:21:32;;;;;;;7.72;6.03;;;15.40;99.90;;;;;;5150091;27;20038;-61
2022/07/03 05:23:57;;;;;;;6.18;5.68;;;15.50;99.90;;;;;;5146452;27;20035;-61
2022/07/03 05:26:23;;;;;;;6.53;5.82;;;15.70;99.90;;;;;;5149958;27;20038;-61
2022/07/03 05:28:49;;;;;;;8.40;6.20;;;15.90;99.90;;;;;;5148737;27;20453;-61
2022/07/03 05:31:15;;;;;;;8.75;5.93;;;16.10;99.90;;;;;;5143832;27;20125;-60
2022/07/03 05:33:40;;;;;;;5.90;5.00;;;16.40;99.90;;;;;;5145493;27;20386;-60
2022/07/03 05:36:06;;;;;;;5.10;4.60;;;16.60;99.90;;;;;;5145547;27;20049;-61
2022/07/03 05:41:16;;;;;;;5.43;4.20;;;17.00;99.90;;;;;;5150373;27;20465;-61
2022/07/03 05:43:41;;;;;;;5.30;4.40;;;17.30;99.90;;;;;;5152668;27;20121;-61
2022/07/03 05:46:07;;;;;;;4.80;4.00;;;17.40;99.90;;;;;;5142411;27;20059;-61
2022/07/03 05:48:33;;;;;;;4.07;3.42;;;17.70;99.90;;;;;;5152725;27;20443;-62
2022/07/03 05:50:58;;;;;;;4.35;3.95;;;17.90;99.90;;;;;;5161948;27;20338;-61
2022/07/03 05:53:24;;;;;;;6.25;3.70;;;18.10;99.90;;;;;;5156780;27;20080;-61
2022/07/03 05:55:49;;;;;;;4.30;3.00;;;18.30;99.80;;;;;;5133927;27;20035;-62
2022/07/03 05:58:15;;;;;;;5.93;3.00;;;18.60;99.40;;;;;;5136359;27;20062;-61
2022/07/03 06:00:41;;;;;;;4.25;3.10;;;18.80;98.90;;;;;;5119496;27;20041;-62
2022/07/03 06:03:07;;;;;;;3.88;2.80;;;19.00;98.30;;;;;;5128608;27;20042;-62
2022/07/03 06:05:33;;;;;;;3.42;2.63;;;19.20;97.70;;;;;;5128405;27;20164;-61
2022/07/03 06:07:59;;;;;;;2.42;2.22;;;19.40;97.20;;;;;;5133811;27;20089;-61
2022/07/03 06:10:25;;;;;;;4.28;1.83;;;19.60;96.20;;;;;;5131091;27;20600;-61
2022/07/03 06:12:51;;;;;;;4.28;2.22;;;19.80;95.30;;;;;;5131657;27;20069;-61
2022/07/03 06:15:17;;;;;;;3.08;2.00;;;20.10;94.50;;;;;;5129366;27;20039;-62
2022/07/03 06:17:43;;;;;;;3.92;1.70;;;20.30;93.70;;;;;;5130206;27;20039;-61
2022/07/03 06:20:10;;;;;;;2.50;1.60;;;20.60;92.50;;;;;;5125044;27;20731;-61
2022/07/03 06:22:36;;;;;;;2.17;1.20;;;20.60;91.20;;;;;;5120720;27;20074;-62
2022/07/03 06:25:02;;;;;;;1.40;1.20;;;20.50;90.30;;;;;;5130909;27;20525;-61
2022/07/03 06:27:28;;;;;;;1.55;1.10;;;20.20;87.90;;;;;;5131866;27;20027;-62
2022/07/03 06:29:54;;;;;;;2.72;1.13;;;20.40;86.80;;;;;;5122412;27;20064;-62
2022/07/03 06:32:19;;;;;;;1.95;1.10;;;20.60;84.60;;;;;;5119251;27;20027;-62
2022/07/03 06:34:45;;;;;;;1.92;1.05;;;20.70;83.10;;;;;;5117525;27;20067;-61
2022/07/03 06:37:11;;;;;;;1.98;1.10;;;21.00;82.90;;;;;;5126641;27;20628;-62
2022/07/03 06:39:37;;;;;;;2.22;1.10;;;21.20;82.10;;;;;;5118881;27;20035;-61
2022/07/03 06:42:03;;;;;;;1.85;1.35;;;21.30;79.60;;;;;;5126149;27;22502;-61
2022/07/03 06:44:29;;;;;;;2.70;1.35;;;21.60;78.70;;;;;;5117263;27;20146;-62
2022/07/03 06:46:55;;;;;;;5.15;1.10;;;21.80;77.80;;;;;;5124229;27;20091;-62
2022/07/03 06:49:20;;;;;;;1.83;0.82;;;22.00;76.80;;;;;;5128046;27;20050;-61
2022/07/03 06:51:46;;;;;;;3.17;1.20;;;22.30;76.00;;;;;;5126402;27;20039;-62
2022/07/03 06:54:12;;;;;;;2.30;1.30;;;22.50;74.90;;;;;;5130870;27;20050;-62
2022/07/03 06:56:37;;;;;;;2.85;1.05;;;22.80;73.40;;;;;;5147922;27;20158;-61
2022/07/03 06:59:03;;;;;;;1.88;1.15;;;23.00;72.10;;;;;;5152807;27;20394;-62
2022/07/03 07:01:29;;;;;;;3.75;1.10;;;22.80;70.20;;;;;;5153068;27;20054;-62
2022/07/03 07:03:54;;;;;;;3.25;1.20;;;22.80;70.20;;;;;;5148216;27;20039;-62
2022/07/03 07:06:20;;;;;;;1.90;1.00;;;22.70;69.50;;;;;;5138453;27;20049;-61
2022/07/03 07:08:47;;;;;;;2.88;1.15;;;22.70;69.50;;;;;;5154846;27;20065;-62
2022/07/03 07:11:12;;;;;;;1.80;1.13;;;22.50;69.10;;;;;;5146445;27;20042;-62
2022/07/03 07:13:38;;;;;;;4.72;1.33;;;22.30;69.30;;;;;;5154319;27;20034;-62
2022/07/03 07:16:04;;;;;;;1.88;1.20;;;22.20;69.70;;;;;;5128122;27;20114;-62
2022/07/03 07:18:30;;;;;;;3.95;1.20;;;22.00;70.00;;;;;;5133575;27;20122;-62
2022/07/03 07:20:55;;;;;;;2.50;1.27;;;21.90;70.30;;;;;;5167176;27;20041;-62
2022/07/03 07:23:21;;;;;;;2.10;1.13;;;21.80;70.90;;;;;;5154358;27;20030;-62
2022/07/03 07:25:46;;;;;;;2.58;1.10;;;21.80;71.40;;;;;;5155439;27;20026;-62
2022/07/03 07:28:12;;;;;;;5.45;1.40;;;21.90;72.10;;;;;;5156239;27;20050;-62
2022/07/03 07:30:40;;;;;;;4.05;1.10;;;22.00;71.90;;;;;;5152090;27;20485;-62
2022/07/03 07:33:07;;;;;;;3.03;1.13;;;22.20;72.40;;;;;;5149083;27;20034;-61
2022/07/03 07:35:32;;;;;;;3.00;1.20;;;22.20;72.30;;;;;;5140402;27;20031;-62
2022/07/03 07:37:58;;;;;;;3.28;1.20;;;22.60;72.30;;;;;;5156911;27;20050;-63
2022/07/03 07:40:24;;;;;;;3.03;1.30;;;23.00;71.00;;;;;;5146811;27;20041;-62
2022/07/03 07:42:50;;;;;;;2.17;1.40;;;23.30;70.30;;;;;;5152357;27;20061;-62
2022/07/03 07:45:15;;;;;;;3.30;1.27;;;23.50;70.00;;;;;;5149694;27;20046;-62
2022/07/03 07:47:41;;;;;;;2.00;1.05;;;23.50;69.60;;;;;;5148191;27;20039;-63
2022/07/03 07:50:07;;;;;;;2.78;1.10;;;23.60;69.30;;;;;;5142686;27;20035;-63
2022/07/03 07:52:33;;;;;;;3.90;1.10;;;23.90;68.20;;;;;;5129552;27;20370;-63
2022/07/03 07:54:58;;;;;;;2.22;1.05;;;24.30;67.00;;;;;;5123913;27;20047;-62
2022/07/03 07:57:24;;;;;;;2.20;1.10;;;24.80;65.70;;;;;;5145414;27;20054;-63
2022/07/03 07:59:49;;;;;;;3.05;1.23;;;25.10;64.50;;;;;;5139852;27;20126;-63
2022/07/03 08:07:43;;;;;;;2.60;1.20;;;25.20;62.10;;;;;;5150332;27;20042;-63
2022/07/03 08:10:09;;;;;;;1.08;0.85;;;25.40;60.90;;;;;;5149369;27;20035;-63
2022/07/03 08:12:35;;;;;;;1.73;0.98;;;25.40;60.60;;;;;;5121356;27;20122;-64
2022/07/03 08:15:00;;;;;;;2.40;1.20;;;25.60;60.30;;;;;;5150003;27;20067;-63
2022/07/03 08:17:26;;;;;;;2.83;1.00;;;25.90;59.50;;;;;;5152460;27;20034;-62
2022/07/03 08:19:52;;;;;;;3.17;1.10;;;26.00;59.20;;;;;;5136772;27;20845;-63
2022/07/03 08:22:17;;;;;;;2.83;0.85;;;26.20;58.70;;;;;;5145722;27;20364;-63
2022/07/03 08:24:43;;;;;;;2.28;1.10;;;26.40;58.30;;;;;;5147460;27;20105;-62
2022/07/03 08:27:08;;;;;;;2.90;1.10;;;26.50;57.80;;;;;;5146843;27;20169;-63
2022/07/03 08:29:34;;;;;;;1.27;1.00;;;26.80;56.70;;;;;;5128350;27;20050;-63
2022/07/03 08:31:59;;;;;;;2.58;0.90;;;27.20;55.80;;;;;;5147889;27;20043;-63
2022/07/03 08:34:25;;;;;;;1.80;0.80;;;27.50;55.90;;;;;;5152720;27;20042;-63
2022/07/03 08:36:50;;;;;;;3.55;1.08;;;27.50;55.70;;;;;;5152610;27;20073;-64
2022/07/03 08:39:16;;;;;;;2.28;1.20;;;27.30;55.10;;;;;;5151265;27;20053;-63
2022/07/03 08:41:42;;;;;;;1.38;0.90;;;27.30;54.80;;;;;;5152270;27;20031;-63
2022/07/03 08:44:11;;;;;;;2.78;1.10;;;27.40;54.50;;;;;;5153138;27;20046;-63
2022/07/03 08:46:38;;;;;;;1.85;1.20;;;27.20;53.80;;;;;;5152780;27;20483;-63
2022/07/03 08:49:05;;;;;;;1.92;1.10;;;26.90;53.70;;;;;;5145761;27;20383;-62
2022/07/03 08:51:31;;;;;;;1.65;1.20;;;26.50;53.60;;;;;;5154649;27;20114;-63
2022/07/03 08:54:00;;;;;;;2.47;1.00;;;26.40;53.30;;;;;;5152696;27;20055;-63
2022/07/03 08:56:27;;;;;;;1.98;1.05;;;26.20;53.30;;;;;;5149589;27;20046;-63
2022/07/03 08:58:53;;;;;;;2.72;1.02;;;26.00;53.30;;;;;;5151719;27;20043;-63
2022/07/03 09:01:20;;;;;;;2.30;1.23;;;25.70;54.10;;;;;;5151452;27;20027;-63
2022/07/03 09:03:46;;;;;;;1.58;1.10;;;25.60;54.00;;;;;;5145225;27;20027;-62
2022/07/03 09:06:13;;;;;;;2.55;1.20;;;25.40;53.70;;;;;;5111914;27;20394;-62
2022/07/03 09:08:39;;;;;;;1.40;0.90;;;25.30;53.90;;;;;;5124686;27;20133;-63
2022/07/03 09:11:05;;;;;;;1.67;1.05;;;25.50;54.10;;;;;;5126116;27;20038;-63
2022/07/03 09:13:31;;;;;;;2.45;1.20;;;25.60;54.50;;;;;;5133017;27;20550;-62
2022/07/03 09:15:56;;;;;;;4.40;1.33;;;25.60;55.60;;;;;;5150072;27;20099;-63
2022/07/03 09:18:42;;;;;;;1.90;1.30;;;25.50;56.10;;;;;;5145715;27;20870;-62
2022/07/03 09:21:08;;;;;;;3.10;1.42;;;25.80;57.50;;;;;;5145741;27;20050;-62
2022/07/03 09:23:39;;;;;;;3.05;1.33;;;26.70;55.50;;;;;;5154005;27;20031;-63
2022/07/03 09:26:06;;;;;;;2.00;1.15;;;27.50;54.40;;;;;;5135242;27;20038;-62
2022/07/03 09:28:52;;;;;;;1.83;1.25;;;28.00;52.90;;;;;;5132281;27;20039;-62
2022/07/03 09:31:20;;;;;;;4.68;1.50;;;28.40;51.60;;;;;;5144573;27;20076;-63
2022/07/03 09:34:03;;;;;;;2.08;1.25;;;28.60;50.80;;;;;;5148637;27;20367;-63
2022/07/03 09:36:48;;;;;;;1.35;1.15;;;28.60;48.60;;;;;;5151685;27;22625;-63
2022/07/03 09:39:15;;;;;;;3.25;1.10;;;29.00;49.30;;;;;;5153760;27;20049;-63
2022/07/03 09:42:00;;;;;;;2.92;1.40;;;28.30;49.70;;;;;;5149004;27;20398;-62
2022/07/03 09:44:30;;;;;;;2.42;1.30;;;27.70;48.10;;;;;;5144445;27;22717;-63
2022/07/03 09:47:15;;;;;;;2.13;1.00;;;28.00;49.70;;;;;;5110801;27;20039;-63
2022/07/03 09:49:57;;;;;;;1.50;0.95;;;28.70;47.00;;;;;;5151436;27;20133;-63
2022/07/03 09:52:39;;;;;;;2.53;1.10;;;28.80;47.30;;;;;;5147899;27;20080;-62
2022/07/03 09:55:11;;;;;;;2.58;1.00;;;29.60;46.90;;;;;;5147897;27;20921;-63
2022/07/03 09:57:41;;;;;;;1.23;0.70;;;30.00;45.50;;;;;;5161614;27;20031;-63
2022/07/03 10:00:19;;;;;;;1.55;0.68;;;30.00;44.40;;;;;;5155723;27;20148;-63
2022/07/03 10:03:04;;;;;;;1.50;0.73;;;29.80;43.70;;;;;;5152689;27;20035;-63
2022/07/03 10:05:32;;;;;;;2.60;1.00;;;29.10;42.90;;;;;;5150522;27;20054;-63
2022/07/03 10:08:00;;;;;;;2.85;1.40;;;28.40;44.80;;;;;;5147056;27;20031;-63
2022/07/03 10:10:28;;;;;;;1.52;0.93;;;27.80;44.50;;;;;;5140334;27;20059;-63
2022/07/03 10:12:55;;;;;;;1.15;0.80;;;27.50;46.40;;;;;;5157000;27;20037;-62
2022/07/03 10:15:21;;;;;;;2.10;1.52;;;27.20;46.70;;;;;;5152699;27;20178;-63
2022/07/03 10:17:52;;;;;;;2.55;1.20;;;26.70;47.80;;;;;;5156587;27;20059;-62
2022/07/03 10:20:24;;;;;;;2.75;0.80;;;27.00;48.30;;;;;;5144290;27;20102;-63
2022/07/03 10:22:51;;;;;;;2.15;0.80;;;27.10;48.00;;;;;;5172203;27;20155;-63
2022/07/03 10:25:17;;;;;;;2.38;0.80;;;27.80;47.40;;;;;;5134710;27;20067;-63
2022/07/03 10:27:45;;;;;;;2.22;0.80;;;28.70;46.40;;;;;;5150676;27;20410;-63
2022/07/03 10:30:13;;;;;;;1.88;0.60;;;29.70;45.90;;;;;;5127215;27;20121;-63
2022/07/03 10:32:39;;;;;;;1.00;0.63;;;30.30;43.50;;;;;;5150024;27;20834;-65
2022/07/03 10:35:06;;;;;;;2.95;0.55;;;30.00;43.70;;;;;;5144926;27;20606;-63
2022/07/03 10:37:58;;;;;;;1.58;0.70;;;29.20;42.60;;;;;;5153551;27;20038;-63
2022/07/03 10:46:21;;;;;;;1.23;0.50;;;27.30;44.70;;;;;;5148854;27;20459;-63
2022/07/03 10:49:07;;;;;;;2.55;0.65;;;27.80;44.60;;;;;;5150702;27;20052;-62
2022/07/03 10:51:41;;;;;;;2.88;0.70;;;27.70;43.30;;;;;;5148043;27;20035;-63
2022/07/03 10:54:13;;;;;;;2.88;0.68;;;28.30;42.40;;;;;;5139496;27;20059;-63
2022/07/03 10:56:57;;;;;;;1.33;0.60;;;29.20;42.80;;;;;;5118972;27;20053;-62
2022/07/03 10:59:47;;;;;;;3.05;0.70;;;30.10;40.30;;;;;;5152456;27;20157;-63
2022/07/03 11:02:23;;;;;;;1.60;0.70;;;30.60;38.80;;;;;;5107477;27;20095;-63
2022/07/03 11:05:01;;;;;;;2.15;0.82;;;30.30;39.20;;;;;;5146943;27;20095;-62
2022/07/03 11:07:32;;;;;;;1.52;0.60;;;29.20;40.50;;;;;;5145585;27;20030;-63
2022/07/03 11:10:13;;;;;;;2.05;0.73;;;29.00;41.50;;;;;;5144909;27;20035;-64
2022/07/03 11:12:56;;;;;;;1.80;0.50;;;28.60;42.60;;;;;;5154742;27;20042;-62
2022/07/03 11:15:39;;;;;;;1.00;0.50;;;28.30;43.70;;;;;;5156513;27;20030;-64
2022/07/03 11:18:05;;;;;;;2.83;0.70;;;28.20;43.90;;;;;;5128355;27;20064;-64
2022/07/03 11:20:41;;;;;;;2.08;0.90;;;28.30;43.80;;;;;;5122276;27;20061;-63
2022/07/03 11:23:09;;;;;;;2.05;0.90;;;28.20;42.80;;;;;;5152871;27;20042;-63
2022/07/03 11:25:39;;;;;;;2.78;0.82;;;27.60;43.70;;;;;;5143206;27;20046;-63
2022/07/03 11:28:05;;;;;;;3.35;0.93;;;27.80;44.40;;;;;;5140474;27;20502;-63
2022/07/03 11:30:31;;;;;;;2.38;0.73;;;27.80;45.00;;;;;;5136532;27;20121;-64
2022/07/03 11:33:00;;;;;;;2.05;0.90;;;27.60;45.00;;;;;;5138449;27;20077;-63
2022/07/03 11:35:54;;;;;;;2.28;0.80;;;27.40;45.20;;;;;;5141877;27;20047;-62
2022/07/03 11:38:29;;;;;;;2.60;0.70;;;27.50;44.40;;;;;;5149181;27;20359;-63
2022/07/03 11:40:58;;;;;;;2.20;0.75;;;27.20;45.40;;;;;;5163326;27;20038;-63
2022/07/03 11:43:24;;;;;;;1.65;0.60;;;26.90;44.60;;;;;;5149286;27;20034;-63
2022/07/03 11:45:50;;;;;;;4.47;0.70;;;26.60;45.00;;;;;;5130796;27;20515;-63
2022/07/03 11:48:19;;;;;;;2.22;0.70;;;26.50;45.10;;;;;;5156303;27;20038;-63
2022/07/03 11:50:47;;;;;;;2.22;0.73;;;26.70;44.90;;;;;;5130280;27;20390;-63
2022/07/03 11:53:22;;;;;;;1.65;0.60;;;26.50;44.70;;;;;;5145790;27;20563;-63
2022/07/03 11:55:54;;;;;;;1.63;0.57;;;26.80;44.50;;;;;;5137072;27;20604;-64
2022/07/03 11:58:20;;;;;;;1.75;0.75;;;26.90;44.70;;;;;;5144707;27;20038;-62
2022/07/03 12:00:46;;;;;;;2.15;0.60;;;26.80;44.80;;;;;;5147931;27;20037;-62
2022/07/03 12:03:20;;;;;;;0.88;0.60;;;26.50;45.20;;;;;;5139081;27;20382;-63
2022/07/03 12:05:57;;;;;;;1.17;0.60;;;26.70;44.50;;;;;;5132944;27;20516;-63
2022/07/03 12:08:33;;;;;;;2.30;0.60;;;26.70;43.50;;;;;;5128363;27;20042;-63
2022/07/03 12:11:17;;;;;;;1.65;0.60;;;27.10;43.60;;;;;;5140691;27;20043;-63
2022/07/03 12:13:43;;;;;;;0.68;0.43;;;27.30;43.50;;;;;;5132196;27;20374;-63
2022/07/03 12:16:13;;;;;;;1.52;0.60;;;27.90;43.40;;;;;;5141506;27;20050;-63
2022/07/03 12:18:51;;;;;;;2.42;0.68;;;28.30;43.50;;;;;;5146475;27;20558;-64
2022/07/03 12:21:21;;;;;;;1.60;0.55;;;29.10;42.70;;;;;;5132553;27;20038;-63
2022/07/03 12:23:49;;;;;;;;;;;30.60;40.40;;;;;;5134203;27;20515;-63
2022/07/03 12:26:30;;;;;;;0.82;0.50;;;31.20;41.10;;;;;;5148570;27;19915;-63
2022/07/03 12:28:58;;;;;;;1.33;0.70;;;32.50;39.50;;;;;;5134303;27;20038;-64
2022/07/03 12:31:24;;;;;;;1.58;0.60;;;32.30;38.00;;;;;;5148145;27;20522;-63
2022/07/03 12:33:50;;;;;;;0.82;0.60;;;32.90;37.70;;;;;;5157915;27;20038;-62
2022/07/03 12:36:16;;;;;;;1.35;0.70;;;31.70;36.90;;;;;;5158487;27;20046;-63
2022/07/03 12:38:42;;;;;;;2.80;1.10;;;32.80;37.10;;;;;;5134394;27;20062;-64
2022/07/03 12:41:09;;;;;;;1.88;0.60;;;33.50;36.30;;;;;;5159463;27;20039;-63
2022/07/03 12:43:42;;;;;;;2.25;0.68;;;32.50;36.30;;;;;;5159570;27;20034;-63
2022/07/03 12:46:18;;;;;;;0.85;0.73;;;31.70;36.80;;;;;;5153296;27;20121;-64
2022/07/03 12:48:54;;;;;;;1.55;0.82;;;30.20;38.30;;;;;;5149390;27;20046;-63
2022/07/03 12:51:40;;;;;;;1.73;0.93;;;30.60;40.20;;;;;;5149804;27;20041;-64
2022/07/03 12:54:22;;;;;;;2.70;0.90;;;31.00;41.70;;;;;;5154392;27;20410;-64
2022/07/03 12:59:16;;;;;;;3.03;1.10;;;32.50;39.50;;;;;;5157552;27;20459;-64
2022/07/03 13:00:10;;;;;;;3.17;0.90;;;32.10;39.60;;;;;;5148824;27;20284;-64
2022/07/03 13:02:38;;;;;;;1.88;0.85;;;30.80;40.40;;;;;;5151617;27;20027;-63
2022/07/03 13:05:24;;;;;;;2.95;0.95;;;30.30;41.50;;;;;;5151643;27;20046;-63
2022/07/03 13:07:54;;;;;;;2.47;0.70;;;29.80;42.50;;;;;;5152361;27;20458;-63
2022/07/03 13:10:24;;;;;;;2.45;1.13;;;29.40;42.50;;;;;;5115912;27;20419;-63
2022/07/03 13:12:57;;;;;;;0.98;0.70;;;31.50;42.20;;;;;;5115740;27;20046;-64
2022/07/03 13:15:27;;;;;;;1.98;0.80;;;32.80;39.70;;;;;;5150593;27;20043;-64